createdAt,value
2022-09-07T00:10:22.361Z,101011.61
2022-09-07T00:40:25.492Z,101014.42
2022-09-07T01:10:29.482Z,101000.72
2022-09-07T01:40:32.900Z,100979.66
2022-09-07T02:10:36.057Z,100977.74
2022-09-07T02:40:39.202Z,100970.02
2022-09-07T03:10:42.680Z,100962.13
2022-09-07T03:40:45.429Z,100961.80
2022-09-07T04:10:49.139Z,100958.87
2022-09-07T04:40:51.846Z,100927.44
2022-09-07T05:10:55.862Z,100937.27
2022-09-07T05:40:58.812Z,100929.05
2022-09-07T06:11:02.121Z,100915.91
2022-09-07T07:11:28.246Z,100911.63
2022-09-07T08:11:54.476Z,100911.33
2022-09-07T08:41:57.189Z,100888.05
2022-09-07T09:12:00.725Z,100889.07
2022-09-07T09:42:03.839Z,100836.18
2022-09-07T10:12:08.414Z,100818.74
2022-09-07T10:42:11.590Z,100802.06
2022-09-07T11:12:15.361Z,100794.34
2022-09-07T12:12:41.848Z,100750.93
2022-09-07T12:42:44.692Z,100718.75
2022-09-07T13:43:31.011Z,100647.72
2022-09-07T14:13:34.525Z,100629.16
2022-09-07T14:43:37.202Z,100626.48
2022-09-07T15:13:41.034Z,100606.16
2022-09-07T15:43:43.754Z,100592.27
2022-09-07T16:13:48.142Z,100593.84
2022-09-07T16:43:50.999Z,100579.69
2022-09-07T17:13:54.897Z,100568.25
2022-09-07T17:43:57.747Z,100576.05
2022-09-07T18:14:01.873Z,100615.48
2022-09-07T18:44:04.667Z,100631.80
2022-09-07T19:14:08.183Z,100629.16
2022-09-07T19:44:10.892Z,100615.73
2022-09-07T20:14:14.744Z,100592.09
2022-09-07T20:44:17.474Z,100577.63
2022-09-07T21:14:20.760Z,100584.98
2022-09-07T21:44:23.788Z,100576.95
2022-09-07T22:14:26.847Z,100563.55
2022-09-07T22:44:29.562Z,100542.05
2022-09-07T23:14:33.538Z,100508.92
2022-09-07T23:44:36.310Z,100484.72
